Ubajara, Brazil
Current Conditions -  °F | °C
As of 7:00 AM on Thursday 27 Nov 2014 (Local Time) from SBPB Reporting Station
Clear Clear  
Wind Chill: 82°   Ceiling: Unl
Heat Index: 87°   Visibility: 6mi
Dew Point: 72°   Wind: 16mph
Humidity: 70%   Direction: 110°ESE
Pressure: 29.85"   Gusts: NA
Location:  3.85°S, 40.92°W
Report Text: SBPB 271000Z 11014KT CAVOK 28/22 Q1011
Loading
Personal Weather Stations






























Interactive Weather Map New forecast layout! Learn more

10-Day Weather Forecast

Advertisements
Track Severe Weather on mobile